Aviation Digital Data Service (ADDS)

Output produced by METARs form (1558 UTC 12 December 2017)
found at http://www.aviationweather.gov/adds/metars/
 
KAOO 121553Z AUTO 28013KT 5SM -SN FEW019 BKN038 OVC047 02/M02 A2956 RMK AO2 SLP021 P0000 T00171017
KAOO 121546Z AUTO 29014KT 7SM -SN FEW019 BKN038 OVC047 02/M02 A2956 RMK AO2 P0000 T00221017
KAOO 121453Z AUTO 28008KT 4SM -SN BKN019 OVC029 02/M01 A2956 RMK AO2 SNB1357 SLP021 P0000 60000 T00221006 51009
KAOO 121353Z AUTO 26012KT 8SM OVC028 04/M02 A2955 RMK AO2 SLP018 T00391017
KAOO 121350Z AUTO 25011KT 9SM OVC028 04/M02 A2955 RMK AO2
KAOO 121253Z AUTO 26017G21KT 10SM BKN038 BKN044 OVC055 05/M03 A2953 RMK AO2 SLP009 T00501033
KAOO 121153Z AUTO 23014KT 10SM OVC047 05/M03 A2953 RMK AO2 SLP009 60000 T00501033 10050 20017 56016
KAOO 121053Z AUTO 22010KT 10SM BKN049 OVC060 03/M03 A2954 RMK AO2 SLP013 T00281028
KAOO 120953Z AUTO 19007KT 10SM FEW055 OVC080 03/M03 A2954 RMK AO2 SNB06E18 SLP013 P0000 T00281028
KAOO 120918Z AUTO 19004KT 9SM SCT031 BKN049 OVC080 02/M03 A2956 RMK AO2 SNB06E18 P0000 T00221033
KAOO 120910Z AUTO 00000KT 7SM -SN BKN029 BKN049 OVC060 02/M03 A2957 RMK AO2 SNB06 P0000 T00221033
KAOO 120853Z AUTO 26005KT 10SM SCT043 OVC065 02/M03 A2958 RMK AO2 SLP027 T00221033 56027
KAOO 120753Z AUTO 17007KT 10SM FEW060 03/M04 A2959 RMK AO2 SLP030 T00281039
KAOO 120653Z AUTO 20006KT 10SM OVC100 03/M04 A2964 RMK AO2 SLP047 T00331044
KAOO 120553Z AUTO 18006KT 10SM BKN065 03/M04 A2966 RMK AO2 SLP056 T00331044 10033 20011 58038
KAOO 120453Z AUTO 16005KT 10SM OVC050 03/M04 A2970 RMK AO2 SLP070 T00281044 400390000
KAOO 120353Z AUTO 00000KT 10SM SCT060 03/M05 A2974 RMK AO2 SLP084 T00331050
KAOO 120253Z AUTO 00000KT 10SM OVC060 02/M04 A2978 RMK AO2 SLP098 T00171039 56022
KAOO 120153Z AUTO 00000KT 10SM FEW055 SCT110 02/M06 A2979 RMK AO2 SLP101 T00171056
KAOO 120053Z AUTO 10003KT 10SM SCT060 OVC090 03/M05 A2981 RMK AO2 SLP107 T00281050
KAOO 112353Z AUTO 16004KT 10SM OVC060 03/M06 A2985 RMK AO2 SLP121 T00331056 10039 20011 56013
KAOO 112253Z AUTO 00000KT 10SM SCT065 OVC110 02/M06 A2986 RMK AO2 SLP124 T00221056
KAOO 112153Z AUTO 00000KT 10SM OVC100 03/M06 A2987 RMK AO2 SLP127 T00331061
KAOO 112053Z AUTO 00000KT 10SM OVC080 04/M06 A2989 RMK AO2 SLP133 T00391056 58023
KAOO 111953Z AUTO 19006KT 10SM BKN100 OVC110 04/M06 A2991 RMK AO2 SLP141 T00391061
KAOO 111853Z AUTO 19007KT 10SM FEW120 03/M07 A2993 RMK AO2 SLP149 T00331067
KAOO 111753Z AUTO 22008KT 10SM CLR 03/M07 A2996 RMK AO2 SLP158 T00281067 10028 20000 58018
KAOO 111653Z AUTO 25005KT 10SM BKN032 02/M07 A2998 RMK AO2 SLP164 T00221067
KAOO 111553Z AUTO 25007KT 10SM OVC032 01/M07 A3000 RMK AO2 SLP174 T00111072
KAOO 111453Z AUTO 29007KT 10SM OVC031 01/M07 A3001 RMK AO2 SLP178 T00061067 51007
KAOO 111353Z AUTO 31006KT 10SM OVC033 01/M06 A3001 RMK AO2 SLP177 T00061061
KAOO 111253Z AUTO 29009KT 10SM OVC036 00/M06 A3000 RMK AO2 SLP174 T00001061
KAOO 111153Z AUTO 28006KT 10SM SCT033 OVC043 00/M07 A2999 RMK AO2 SLP171 T00001067 10006 20000 53013
KAOO 111053Z AUTO 27007KT 10SM BKN032 OVC043 00/M07 A2997 RMK AO2 SLP163 T00001067
KAOO 110953Z AUTO 28009KT 10SM OVC033 01/M07 A2996 RMK AO2 SLP159 T00061072
KAOO 110853Z AUTO 27007KT 10SM OVC033 00/M07 A2995 RMK AO2 SLP157 T00001067 53006
KAOO 110753Z AUTO 26009KT 10SM OVC036 00/M07 A2994 RMK AO2 SLP154 T00001072
KAOO 110653Z AUTO 26013G20KT 10SM OVC036 01/M08 A2993 RMK AO2 SLP149 T00061078
KAOO 110553Z AUTO 26013G21KT 10SM OVC039 01/M08 A2993 RMK AO2 SLP150 T00061083 10006 21011 58008
KAOO 110453Z AUTO 26011KT 10SM OVC044 01/M08 A2994 RMK AO2 SLP154 T00061083 400061017